Time;durP1;ratioP1;P1;durP2;ratioP2;P2;SDS_P1;SDS_P2;PMS_P1;PMS_P2;Temp;Humidity;BMP_temperature;BMP_pressure;BME280_temperature;BME280_humidity;BME280_pressure;Samples;Min_cycle;Max_cycle;Signal;HPM_P1;HPM_P2
2023/06/25 00:01:47;;;;;;;20.70;15.23;;;;;;;20.84;75.53;101963.19;5018392;28;20487;-64
2023/06/25 00:04:13;;;;;;;23.85;14.82;;;;;;;20.75;76.12;101959.03;5028532;28;20048;-62
2023/06/25 00:06:38;;;;;;;17.50;13.60;;;;;;;20.79;76.48;101965.66;5021406;28;20037;-64
2023/06/25 00:09:03;;;;;;;17.88;13.57;;;;;;;20.79;76.73;101962.13;5029447;28;20017;-64
2023/06/25 00:11:29;;;;;;;19.40;14.65;;;;;;;20.67;76.81;101951.16;5021094;28;20022;-63
2023/06/25 00:13:54;;;;;;;20.77;14.65;;;;;;;20.63;77.46;101955.31;5024805;28;20036;-64
2023/06/25 00:16:19;;;;;;;19.95;14.57;;;;;;;20.60;77.40;101953.88;5027094;28;20107;-63
2023/06/25 00:18:47;;;;;;;16.20;12.60;;;;;;;20.60;77.38;101956.56;5021909;28;20026;-63
2023/06/25 00:21:13;;;;;;;15.50;12.20;;;;;;;20.53;77.84;101942.25;5024570;28;20100;-64
2023/06/25 00:23:38;;;;;;;15.90;11.98;;;;;;;20.53;77.75;101946.81;5025905;28;20138;-63
2023/06/25 00:26:04;;;;;;;17.23;12.95;;;;;;;20.41;78.17;101947.44;5023469;28;20545;-64
2023/06/25 00:28:29;;;;;;;17.67;13.30;;;;;;;20.42;78.24;101941.00;5027495;28;20025;-64
2023/06/25 00:30:54;;;;;;;19.38;14.57;;;;;;;20.39;78.51;101951.34;5022178;28;20083;-63
2023/06/25 00:33:19;;;;;;;19.58;12.65;;;;;;;20.37;78.81;101945.34;5025408;28;20028;-63
2023/06/25 00:35:51;;;;;;;13.55;10.95;;;;;;;20.34;78.77;101952.00;5024647;28;20491;-64
2023/06/25 00:38:17;;;;;;;16.63;11.82;;;;;;;20.36;78.51;101941.00;5028071;28;20037;-64
2023/06/25 00:40:43;;;;;;;19.00;12.73;;;;;;;20.35;78.56;101939.31;5027155;28;20082;-64
2023/06/25 00:43:08;;;;;;;21.35;15.15;;;;;;;20.28;78.87;101935.81;5016919;28;20423;-64
2023/06/25 00:45:35;;;;;;;16.83;12.32;;;;;;;20.27;78.78;101934.16;5020436;28;20033;-62
2023/06/25 00:48:01;;;;;;;17.38;12.52;;;;;;;20.28;79.11;101938.50;5018495;28;20021;-64
2023/06/25 00:50:27;;;;;;;22.85;14.98;;;;;;;20.25;79.15;101937.06;5022759;28;20033;-64
2023/06/25 00:52:52;;;;;;;20.65;14.93;;;;;;;20.18;79.41;101930.81;5022215;28;20026;-63
2023/06/25 00:55:19;;;;;;;18.58;14.73;;;;;;;20.18;79.36;101929.97;5018728;28;20028;-62
2023/06/25 00:57:45;;;;;;;19.50;14.55;;;;;;;20.17;79.58;101918.38;5025573;28;20021;-63
2023/06/25 01:00:14;;;;;;;21.67;15.00;;;;;;;20.16;79.91;101924.78;5023888;28;20099;-62
2023/06/25 01:02:50;;;;;;;18.92;13.90;;;;;;;20.21;79.76;101913.38;5021819;28;20448;-64
2023/06/25 01:05:52;;;;;;;24.65;17.10;;;;;;;20.20;80.26;101923.34;5020637;28;20527;-63
2023/06/25 01:08:20;;;;;;;19.50;13.63;;;;;;;20.15;79.67;101922.31;5024964;28;20498;-63
2023/06/25 01:10:45;;;;;;;19.90;13.77;;;;;;;19.91;79.35;101908.38;5020437;28;20111;-63
2023/06/25 01:13:10;;;;;;;21.13;14.98;;;;;;;19.85;79.85;101914.59;5023717;28;20025;-63
2023/06/25 01:15:36;;;;;;;19.45;14.50;;;;;;;19.74;80.18;101901.75;5017100;28;20066;-64
2023/06/25 01:18:02;;;;;;;23.67;16.15;;;;;;;19.63;80.66;101907.72;5024305;28;20418;-63
2023/06/25 01:20:28;;;;;;;25.42;15.70;;;;;;;19.69;80.73;101915.84;5022430;28;20018;-63
2023/06/25 01:22:54;;;;;;;21.67;14.75;;;;;;;19.71;80.97;101907.56;5017012;28;20527;-63
2023/06/25 01:25:20;;;;;;;21.25;15.43;;;;;;;19.62;81.08;101904.19;5020927;28;20025;-64
2023/06/25 01:27:46;;;;;;;20.98;16.13;;;;;;;19.65;81.84;101901.09;5017843;28;20442;-63
2023/06/25 01:30:15;;;;;;;22.75;15.40;;;;;;;19.76;81.36;101905.06;5017303;28;20036;-63
2023/06/25 01:32:41;;;;;;;18.47;12.63;;;;;;;19.70;81.57;101895.94;5017556;28;20025;-64
2023/06/25 01:35:08;;;;;;;21.75;14.38;;;;;;;19.67;81.66;101892.84;5022460;28;20033;-64
2023/06/25 01:37:33;;;;;;;16.23;12.55;;;;;;;19.65;81.62;101892.19;5024025;28;20509;-63
2023/06/25 01:39:59;;;;;;;21.15;14.88;;;;;;;19.73;81.39;101890.16;5020509;28;20037;-63
2023/06/25 01:42:24;;;;;;;19.95;14.18;;;;;;;19.71;81.40;101886.00;5013223;28;20095;-63
2023/06/25 01:44:49;;;;;;;16.77;12.68;;;;;;;19.62;81.44;101888.03;5010741;28;20121;-62
2023/06/25 01:47:15;;;;;;;18.90;13.25;;;;;;;19.62;81.53;101881.81;5010908;28;20045;-62
2023/06/25 01:49:40;;;;;;;16.77;10.50;;;;;;;19.60;81.77;101883.88;5012005;28;20036;-63
2023/06/25 01:52:07;;;;;;;9.50;8.20;;;;;;;19.53;81.56;101875.78;5012601;28;20061;-62
2023/06/25 01:54:33;;;;;;;12.68;8.77;;;;;;;19.45;81.86;101881.34;5013737;28;20025;-63
2023/06/25 01:56:59;;;;;;;9.73;8.13;;;;;;;19.33;81.52;101869.50;5026030;28;20097;-63
2023/06/25 01:59:24;;;;;;;10.45;8.70;;;;;;;19.24;81.46;101874.25;5026302;28;20103;-63
2023/06/25 02:01:49;;;;;;;13.75;10.18;;;;;;;19.27;81.08;101873.00;5021959;28;20045;-63
2023/06/25 02:04:15;;;;;;;17.67;12.30;;;;;;;19.23;81.29;101866.34;5012351;28;20048;-63
2023/06/25 02:06:40;;;;;;;17.45;11.68;;;;;;;19.29;81.80;101861.00;5021751;28;20632;-63
2023/06/25 02:09:07;;;;;;;18.85;13.80;;;;;;;19.30;82.31;101853.75;5024013;28;20061;-63
2023/06/25 02:11:32;;;;;;;20.77;13.90;;;;;;;19.27;82.51;101854.97;5019596;28;20029;-63
2023/06/25 02:13:57;;;;;;;19.33;14.85;;;;;;;19.25;82.51;101853.53;5020728;28;20115;-61
2023/06/25 02:16:22;;;;;;;21.30;15.32;;;;;;;19.28;82.84;101839.66;5021272;28;20121;-64
2023/06/25 02:18:48;;;;;;;24.83;15.07;;;;;;;19.21;83.01;101842.31;5022926;28;20111;-63
2023/06/25 02:21:13;;;;;;;18.70;15.00;;;;;;;19.22;83.39;101837.78;5025091;28;20022;-64
2023/06/25 02:23:38;;;;;;;24.83;16.55;;;;;;;19.26;83.63;101839.84;5023425;28;20029;-63
2023/06/25 02:26:04;;;;;;;22.17;16.77;;;;;;;19.25;83.73;101840.88;5026910;28;20025;-63
2023/06/25 02:28:29;;;;;;;23.08;16.30;;;;;;;19.26;83.73;101839.84;5019630;28;20025;-63
2023/06/25 02:30:54;;;;;;;21.95;17.05;;;;;;;19.23;83.50;101834.88;5017487;28;20022;-63
2023/06/25 02:33:20;;;;;;;24.35;17.88;;;;;;;19.23;83.68;101829.50;5024344;28;20061;-64
2023/06/25 02:35:45;;;;;;;24.77;17.30;;;;;;;19.21;83.46;101828.88;5026209;28;20491;-63
2023/06/25 02:38:10;;;;;;;26.50;17.83;;;;;;;19.18;83.56;101826.56;5024836;28;20039;-63
2023/06/25 02:40:35;;;;;;;26.60;18.50;;;;;;;19.15;84.00;101829.69;5021348;28;20032;-62
2023/06/25 02:43:01;;;;;;;23.05;16.75;;;;;;;19.10;84.23;101824.91;5020502;28;20091;-63
2023/06/25 02:45:27;;;;;;;20.60;16.00;;;;;;;19.16;83.94;101831.34;5024694;28;20316;-64
2023/06/25 02:47:52;;;;;;;24.50;17.05;;;;;;;19.15;84.15;101816.22;5029207;28;20029;-63
2023/06/25 02:50:17;;;;;;;23.75;16.70;;;;;;;19.17;84.17;101819.53;5027917;28;20029;-63
2023/06/25 02:52:43;;;;;;;24.83;17.80;;;;;;;19.17;83.89;101819.53;5022579;28;20156;-63
2023/06/25 02:55:09;;;;;;;26.55;17.42;;;;;;;19.21;84.01;101818.09;5022931;28;20398;-64
2023/06/25 02:57:34;;;;;;;25.20;17.92;;;;;;;19.20;83.77;101819.13;5023977;28;20033;-63
2023/06/25 03:00:00;;;;;;;24.05;17.83;;;;;;;19.27;83.77;101825.34;5027812;28;20036;-62
2023/06/25 03:02:25;;;;;;;23.10;16.77;;;;;;;19.25;83.54;101826.59;5021999;28;20022;-63
2023/06/25 03:04:51;;;;;;;24.73;16.70;;;;;;;19.16;83.57;101824.09;5024771;28;20030;-63
2023/06/25 03:07:16;;;;;;;20.25;15.27;;;;;;;19.09;83.65;101823.25;5024970;28;20057;-63
2023/06/25 03:09:42;;;;;;;23.33;16.17;;;;;;;19.02;83.97;101824.25;5029112;28;20025;-64
2023/06/25 03:12:08;;;;;;;22.42;16.73;;;;;;;18.95;84.04;101818.00;5022237;28;20021;-63
2023/06/25 03:14:33;;;;;;;22.77;17.95;;;;;;;18.94;84.25;101827.94;5029293;28;20038;-63
2023/06/25 03:16:59;;;;;;;23.73;16.23;;;;;;;18.92;84.28;101826.50;5023542;28;20036;-63
2023/06/25 03:19:24;;;;;;;24.73;17.58;;;;;;;18.91;84.32;101819.44;5022745;28;20087;-63
2023/06/25 03:21:50;;;;;;;22.00;16.63;;;;;;;18.88;84.07;101820.69;5023669;28;20033;-63
2023/06/25 03:24:15;;;;;;;26.25;18.90;;;;;;;18.85;84.07;101821.91;5027662;28;20037;-63
2023/06/25 03:26:40;;;;;;;25.35;18.42;;;;;;;18.84;84.12;101819.44;5023666;28;20051;-63
2023/06/25 03:29:06;;;;;;;24.48;17.25;;;;;;;18.85;84.17;101815.72;5025143;28;20045;-63
2023/06/25 03:31:31;;;;;;;25.33;18.55;;;;;;;18.84;84.34;101817.56;5027753;28;20020;-63
2023/06/25 03:33:56;;;;;;;26.17;18.30;;;;;;;18.83;84.62;101815.09;5025887;28;20029;-63
2023/06/25 03:36:22;;;;;;;25.67;19.20;;;;;;;18.86;84.50;101814.69;5025128;28;20029;-63
2023/06/25 03:38:47;;;;;;;25.67;18.92;;;;;;;18.79;84.64;101814.66;5027651;28;20210;-63
2023/06/25 03:41:13;;;;;;;23.38;18.67;;;;;;;18.81;84.83;101809.06;5032540;28;20029;-63
2023/06/25 03:43:38;;;;;;;25.40;18.33;;;;;;;18.79;85.01;101811.97;5033568;28;20029;-63
2023/06/25 03:46:03;;;;;;;23.50;17.88;;;;;;;18.79;85.06;101811.97;5022880;28;20103;-63
2023/06/25 03:48:29;;;;;;;18.77;15.75;;;;;;;18.79;85.44;101809.28;5022236;28;20430;-63
2023/06/25 03:50:54;;;;;;;17.30;13.70;;;;;;;18.78;85.25;101804.91;5027006;28;20017;-63
2023/06/25 03:53:20;;;;;;;18.33;14.18;;;;;;;18.76;85.53;101803.44;5024811;28;20521;-63
2023/06/25 03:55:45;;;;;;;19.50;13.85;;;;;;;18.77;85.60;101792.47;5019672;28;20026;-63
2023/06/25 03:58:10;;;;;;;19.23;14.82;;;;;;;18.79;85.59;101806.59;5023494;28;20022;-63
2023/06/25 04:00:36;;;;;;;24.50;18.40;;;;;;;18.84;85.38;101798.72;5025074;28;20037;-63
2023/06/25 04:03:01;;;;;;;26.58;18.63;;;;;;;18.83;85.21;101798.94;5023293;28;20091;-63
2023/06/25 04:05:26;;;;;;;22.13;16.75;;;;;;;18.85;84.98;101800.38;5026947;28;20029;-63
2023/06/25 04:07:52;;;;;;;22.50;16.60;;;;;;;18.79;85.13;101801.19;5016782;28;20495;-63
2023/06/25 04:10:17;;;;;;;25.10;17.63;;;;;;;18.84;85.00;101797.91;5021509;28;20029;-63
2023/06/25 04:12:42;;;;;;;27.25;18.20;;;;;;;18.81;85.32;101799.13;5023541;28;20029;-63
2023/06/25 04:15:08;;;;;;;21.98;17.20;;;;;;;18.80;85.03;101807.41;5016464;28;20491;-63
2023/06/25 04:17:33;;;;;;;23.30;18.13;;;;;;;18.80;85.24;101807.41;5022753;28;20133;-63
2023/06/25 04:19:59;;;;;;;25.33;18.23;;;;;;;18.80;85.45;101797.47;5022064;28;20021;-63
2023/06/25 04:22:24;;;;;;;23.88;18.05;;;;;;;18.81;85.52;101796.44;5024179;28;20045;-63
2023/06/25 04:24:49;;;;;;;23.92;18.45;;;;;;;18.82;85.57;101808.88;5028236;28;20030;-63
2023/06/25 04:27:15;;;;;;;21.95;17.45;;;;;;;18.86;85.33;101807.44;5024618;28;20052;-63
2023/06/25 04:29:40;;;;;;;25.92;17.42;;;;;;;18.86;85.35;101803.91;5018589;28;20037;-63
2023/06/25 04:32:06;;;;;;;25.20;17.95;;;;;;;18.85;85.39;101796.88;5021584;28;20037;-62
2023/06/25 04:34:31;;;;;;;25.77;18.60;;;;;;;18.86;85.56;101801.22;5020658;28;20513;-63
2023/06/25 04:36:56;;;;;;;23.80;18.65;;;;;;;18.91;85.95;101795.22;5026963;28;21809;-63
2023/06/25 04:39:22;;;;;;;26.60;18.75;;;;;;;18.92;86.02;101799.56;5028825;28;20025;-63
2023/06/25 04:41:48;;;;;;;24.42;18.67;;;;;;;19.01;85.75;101803.72;5025527;28;20029;-63
2023/06/25 04:44:13;;;;;;;24.80;18.77;;;;;;;19.07;85.89;101798.38;5028110;28;20112;-63
2023/06/25 04:46:38;;;;;;;25.80;17.88;;;;;;;19.09;85.88;101792.81;5023372;28;20025;-63
2023/06/25 04:49:03;;;;;;;21.88;17.33;;;;;;;19.15;85.37;101800.06;5019885;28;20048;-63
2023/06/25 04:51:29;;;;;;;23.63;18.38;;;;;;;19.20;85.59;101805.66;5021294;28;20048;-63
2023/06/25 04:53:54;;;;;;;24.50;18.23;;;;;;;19.27;85.50;101803.81;5027763;28;20098;-62
2023/06/25 04:56:19;;;;;;;24.65;18.55;;;;;;;19.33;85.11;101804.84;5028405;28;20041;-63
2023/06/25 04:58:44;;;;;;;22.85;18.58;;;;;;;19.40;85.16;101798.44;5019685;28;20021;-63
2023/06/25 05:01:10;;;;;;;22.35;18.52;;;;;;;19.43;84.25;101794.50;5019880;28;20029;-64
2023/06/25 05:03:35;;;;;;;23.67;19.33;;;;;;;19.50;83.93;101793.47;5025380;28;20025;-63
2023/06/25 05:06:00;;;;;;;25.20;19.27;;;;;;;19.56;83.29;101801.81;5020204;28;20029;-62
2023/06/25 05:08:26;;;;;;;26.52;18.77;;;;;;;19.58;82.38;101797.88;5019577;28;20487;-63
2023/06/25 05:10:51;;;;;;;24.92;18.52;;;;;;;19.66;81.95;101792.28;5021990;28;20036;-63
2023/06/25 05:13:16;;;;;;;24.38;18.95;;;;;;;19.69;81.39;101797.25;5018647;28;20037;-62
2023/06/25 05:15:42;;;;;;;24.15;18.20;;;;;;;19.77;81.27;101788.97;5018814;28;20041;-63
2023/06/25 05:18:08;;;;;;;23.52;18.10;;;;;;;19.85;80.40;101792.47;5026036;28;20588;-62
2023/06/25 05:20:35;;;;;;;28.17;18.50;;;;;;;19.92;80.18;101795.97;5014520;28;20029;-63
2023/06/25 05:23:03;;;;;;;24.23;18.05;;;;;;;19.96;79.47;101803.47;5022446;28;20510;-62
2023/06/25 05:25:28;;;;;;;25.00;18.80;;;;;;;20.02;79.39;101808.03;5019081;28;20519;-62
2023/06/25 05:27:54;;;;;;;23.73;18.40;;;;;;;20.06;78.99;101803.88;5015396;28;20053;-63
2023/06/25 05:30:19;;;;;;;24.02;18.40;;;;;;;20.11;78.67;101795.13;5017455;28;20033;-62
2023/06/25 05:32:44;;;;;;;25.25;19.10;;;;;;;20.15;78.02;101795.53;5022822;28;20030;-63
2023/06/25 05:35:09;;;;;;;23.67;17.77;;;;;;;20.21;78.56;101790.13;5024903;28;20076;-62
2023/06/25 05:37:35;;;;;;;27.13;19.80;;;;;;;20.30;78.38;101796.16;5018497;28;20045;-62
2023/06/25 05:40:00;;;;;;;24.30;18.83;;;;;;;20.34;77.86;101800.91;5018382;28;20095;-63
2023/06/25 05:42:25;;;;;;;27.27;19.40;;;;;;;20.37;77.08;101796.94;5015390;28;20036;-63
2023/06/25 05:44:50;;;;;;;29.67;19.65;;;;;;;20.42;77.08;101792.59;5021356;28;20021;-63
2023/06/25 05:47:16;;;;;;;25.83;19.90;;;;;;;20.48;76.41;101790.09;5019596;28;20033;-64
2023/06/25 05:49:41;;;;;;;24.65;18.30;;;;;;;20.53;76.07;101791.13;5018323;28;20090;-62
2023/06/25 05:52:07;;;;;;;23.45;18.85;;;;;;;20.53;75.56;101791.13;5022131;28;20022;-63
2023/06/25 05:54:32;;;;;;;24.73;19.33;;;;;;;20.64;75.76;101795.03;5019586;28;20025;-63
2023/06/25 05:56:57;;;;;;;24.48;19.77;;;;;;;20.65;75.38;101785.88;5023581;28;20021;-64
2023/06/25 05:59:23;;;;;;;23.65;19.08;;;;;;;20.74;75.11;101779.19;5018125;28;20037;-62
2023/06/25 06:01:48;;;;;;;30.55;19.90;;;;;;;20.83;74.79;101777.91;5019376;28;20021;-62
2023/06/25 06:04:14;;;;;;;25.10;19.13;;;;;;;20.85;74.11;101773.13;5026078;28;20536;-63
2023/06/25 06:06:39;;;;;;;26.67;19.50;;;;;;;20.95;74.19;101770.78;5025222;28;20064;-64
2023/06/25 06:09:04;;;;;;;25.58;19.88;;;;;;;21.02;74.02;101771.56;5024104;28;20026;-63
2023/06/25 06:11:30;;;;;;;26.88;19.42;;;;;;;21.14;74.28;101774.41;5027253;28;20511;-63
2023/06/25 06:13:55;;;;;;;25.20;19.27;;;;;;;21.13;73.56;101780.88;5023356;28;20032;-62
2023/06/25 06:16:20;;;;;;;24.23;19.23;;;;;;;21.17;73.48;101779.38;5023336;28;20068;-64
2023/06/25 06:18:45;;;;;;;27.38;19.60;;;;;;;21.19;72.98;101790.78;5021581;28;20029;-63
2023/06/25 06:21:11;;;;;;;25.80;19.10;;;;;;;21.25;72.57;101787.25;5014715;28;20383;-62
2023/06/25 06:23:36;;;;;;;22.35;18.15;;;;;;;21.30;71.86;101787.41;5020372;28;20044;-62
2023/06/25 06:26:01;;;;;;;37.45;19.13;;;;;;;21.32;71.82;101788.03;5020695;28;20502;-63
2023/06/25 06:28:26;;;;;;;22.70;17.95;;;;;;;21.33;70.85;101786.16;5017272;28;20018;-62
2023/06/25 06:30:52;;;;;;;26.10;19.10;;;;;;;21.34;70.25;101785.09;5024318;28;20079;-62
2023/06/25 06:33:17;;;;;;;24.63;19.00;;;;;;;21.45;70.08;101789.00;5022469;28;20040;-63
2023/06/25 06:35:42;;;;;;;23.13;18.00;;;;;;;21.54;69.84;101779.56;5025586;28;20053;-64
2023/06/25 06:38:07;;;;;;;24.27;18.05;;;;;;;21.55;69.70;101773.94;5017260;28;20109;-63
2023/06/25 06:40:33;;;;;;;24.55;17.50;;;;;;;21.69;69.04;101788.19;5022011;28;20512;-63
2023/06/25 06:42:58;;;;;;;22.13;18.25;;;;;;;21.72;68.61;101781.50;5032238;28;20037;-63
2023/06/25 06:45:23;;;;;;;24.30;17.50;;;;;;;21.78;68.56;101778.72;5024568;28;20072;-63
2023/06/25 06:47:48;;;;;;;24.40;18.95;;;;;;;21.86;68.38;101780.31;5023783;28;20340;-63
2023/06/25 06:50:14;;;;;;;27.38;18.85;;;;;;;21.92;68.08;101777.53;5020853;28;20026;-63
2023/06/25 06:52:42;;;;;;;28.10;18.10;;;;;;;22.00;68.06;101779.16;5019688;28;20583;-63
2023/06/25 06:55:07;;;;;;;23.15;17.38;;;;;;;22.06;67.34;101782.88;5020381;28;20548;-63
2023/06/25 06:57:35;;;;;;;24.80;17.90;;;;;;;22.11;66.86;101772.19;5026123;28;20036;-63
2023/06/25 07:00:01;;;;;;;51.42;21.02;;;;;;;22.16;67.09;101775.88;5022854;28;20137;-64
2023/06/25 07:02:26;;;;;;;33.63;19.20;;;;;;;22.22;66.90;101777.69;5025447;28;20483;-63
2023/06/25 07:04:52;;;;;;;26.98;18.25;;;;;;;22.28;66.47;101778.69;5023487;28;20034;-63
2023/06/25 07:07:17;;;;;;;23.55;18.13;;;;;;;22.31;65.90;101777.41;5026890;28;20437;-64
2023/06/25 07:09:50;;;;;;;70.40;20.88;;;;;;;22.40;66.02;101776.88;5023238;28;20022;-63
2023/06/25 07:12:16;;;;;;;24.85;17.33;;;;;;;22.48;65.99;101771.13;5024775;28;20033;-63
2023/06/25 07:14:41;;;;;;;25.15;17.33;;;;;;;22.54;65.60;101769.41;5022589;28;20623;-63
2023/06/25 07:17:06;;;;;;;23.63;17.67;;;;;;;22.62;64.99;101768.28;5020025;28;20037;-63
2023/06/25 07:19:32;;;;;;;32.45;19.42;;;;;;;22.67;64.92;101771.97;5025677;28;20053;-63
2023/06/25 07:21:57;;;;;;;22.27;17.05;;;;;;;22.72;64.75;101772.09;5025274;28;20022;-63
2023/06/25 07:24:22;;;;;;;24.70;17.75;;;;;;;22.79;64.62;101772.00;5030050;28;20029;-63
2023/06/25 07:26:47;;;;;;;25.23;16.92;;;;;;;22.87;64.33;101769.03;5025655;28;20683;-63
2023/06/25 07:29:13;;;;;;;88.55;24.13;;;;;;;22.95;64.11;101767.88;5022680;28;20040;-62
2023/06/25 07:31:38;;;;;;;24.42;17.48;;;;;;;23.04;64.24;101775.44;5017709;28;20018;-64
2023/06/25 07:34:03;;;;;;;24.77;17.08;;;;;;;23.11;64.24;101768.03;5024774;28;20030;-63
2023/06/25 07:36:28;;;;;;;25.95;17.23;;;;;;;23.16;63.96;101761.94;5028411;28;20545;-63
2023/06/25 07:38:56;;;;;;;25.10;17.15;;;;;;;23.26;64.03;101764.06;5024618;28;20029;-63
2023/06/25 07:41:22;;;;;;;24.80;17.83;;;;;;;23.32;64.08;101760.44;5027144;28;20037;-63
2023/06/25 07:43:47;;;;;;;21.20;15.63;;;;;;;23.32;63.18;101761.25;5020055;28;20027;-63
2023/06/25 07:46:12;;;;;;;28.38;16.70;;;;;;;23.41;62.46;101759.03;5018776;28;20411;-62
2023/06/25 07:48:37;;;;;;;21.35;15.40;;;;;;;23.51;61.48;101750.34;5024079;28;20032;-63
2023/06/25 07:51:03;;;;;;;20.70;15.20;;;;;;;23.57;60.41;101750.25;5028026;28;20018;-63
2023/06/25 07:53:28;;;;;;;19.80;15.07;;;;;;;23.62;59.50;101749.53;5026101;28;20470;-63
2023/06/25 07:55:53;;;;;;;17.73;14.57;;;;;;;23.71;59.49;101754.41;5020378;28;20443;-63
2023/06/25 07:58:18;;;;;;;26.08;15.48;;;;;;;23.80;59.05;101754.88;5013785;28;20021;-64
2023/06/25 08:00:44;;;;;;;22.95;15.75;;;;;;;23.86;58.66;101750.38;5027048;28;20434;-63
2023/06/25 08:03:09;;;;;;;23.58;16.42;;;;;;;23.95;58.59;101748.94;5025441;28;20033;-64
2023/06/25 08:05:34;;;;;;;21.15;15.98;;;;;;;24.02;58.42;101747.78;5023840;28;20115;-62
2023/06/25 08:07:59;;;;;;;25.98;16.98;;;;;;;24.11;58.33;101742.81;5020497;28;20124;-62
2023/06/25 08:10:25;;;;;;;22.15;17.48;;;;;;;24.16;57.65;101748.34;5025675;28;20491;-62
2023/06/25 08:12:51;;;;;;;21.30;16.27;;;;;;;24.37;57.88;101752.34;5026455;28;20033;-63
2023/06/25 08:15:16;;;;;;;21.08;16.25;;;;;;;24.42;58.10;101749.72;5026544;28;20060;-60
2023/06/25 08:17:41;;;;;;;23.98;16.52;;;;;;;24.51;57.93;101737.41;5020460;28;20620;-62
2023/06/25 08:20:07;;;;;;;23.73;16.80;;;;;;;24.60;57.71;101746.84;5025460;28;20068;-62
2023/06/25 08:22:33;;;;;;;26.20;15.27;;;;;;;24.72;57.79;101738.63;5028459;28;20087;-63
2023/06/25 08:24:58;;;;;;;64.57;19.95;;;;;;;24.88;57.93;101737.88;5025805;28;20025;-63
2023/06/25 08:27:23;;;;;;;14.27;10.90;;;;;;;25.00;56.19;101746.81;5024081;28;20475;-65
2023/06/25 08:29:48;;;;;;;16.40;10.05;;;;;;;25.13;55.60;101742.94;5026301;28;20037;-63
2023/06/25 08:32:14;;;;;;;15.35;10.32;;;;;;;25.18;54.16;101736.78;5028674;28;20021;-63
2023/06/25 08:34:40;;;;;;;12.80;9.32;;;;;;;25.24;54.23;101733.91;5025343;28;20052;-63
2023/06/25 08:37:05;;;;;;;16.00;9.95;;;;;;;25.42;54.33;101740.97;5022094;28;20028;-63
2023/06/25 08:39:30;;;;;;;10.45;8.50;;;;;;;25.56;54.09;101728.72;5018263;28;20030;-62
2023/06/25 08:41:56;;;;;;;11.65;8.27;;;;;;;25.61;52.66;101726.06;5026166;28;20021;-63
2023/06/25 08:44:21;;;;;;;20.08;9.38;;;;;;;25.66;51.92;101727.22;5022880;28;20033;-63
2023/06/25 08:46:48;;;;;;;13.38;8.13;;;;;;;25.71;51.84;101735.47;5026069;28;20017;-64
2023/06/25 08:49:14;;;;;;;11.63;7.93;;;;;;;25.87;52.30;101737.34;5026559;28;20029;-63
2023/06/25 08:51:40;;;;;;;11.95;7.28;;;;;;;26.06;52.34;101732.44;5017220;28;20462;-63
2023/06/25 08:54:07;;;;;;;13.13;8.25;;;;;;;26.15;51.27;101736.38;5020004;28;20057;-62
2023/06/25 08:56:33;;;;;;;12.15;7.38;;;;;;;26.37;50.83;101728.25;5023633;28;20423;-62
2023/06/25 08:58:58;;;;;;;11.20;8.30;;;;;;;26.39;50.39;101728.81;5022474;28;20057;-63
2023/06/25 09:01:24;;;;;;;11.93;8.38;;;;;;;26.50;50.90;101728.66;5022914;28;20052;-63
2023/06/25 09:03:52;;;;;;;11.13;7.20;;;;;;;26.56;51.03;101726.81;5024674;28;20029;-63
2023/06/25 09:06:17;;;;;;;13.27;6.78;;;;;;;26.79;51.56;101726.53;5026156;28;20033;-63
2023/06/25 09:08:43;;;;;;;11.77;6.63;;;;;;;27.03;50.51;101721.59;5029287;28;20037;-63
2023/06/25 09:11:09;;;;;;;10.18;7.00;;;;;;;27.13;49.57;101721.69;5026717;28;20040;-63
2023/06/25 09:13:35;;;;;;;10.68;7.45;;;;;;;27.09;48.47;101717.00;5025374;28;20036;-62
2023/06/25 09:16:03;;;;;;;8.40;6.70;;;;;;;27.08;48.45;101720.81;5026574;28;20026;-63
2023/06/25 09:18:32;;;;;;;11.23;6.70;;;;;;;26.97;47.85;101714.44;5028161;28;20026;-63
2023/06/25 09:21:01;;;;;;;6.63;5.60;;;;;;;27.06;48.32;101715.63;5026250;28;20265;-63
2023/06/25 09:23:26;;;;;;;6.88;5.90;;;;;;;27.25;47.52;101710.63;5022161;28;20025;-62
2023/06/25 09:25:53;;;;;;;8.95;6.43;;;;;;;27.44;48.16;101709.09;5028593;28;20013;-63
2023/06/25 09:28:19;;;;;;;8.88;5.82;;;;;;;27.43;47.59;101710.19;5020572;28;20025;-64
2023/06/25 09:30:45;;;;;;;7.28;5.18;;;;;;;27.63;47.78;101708.72;5025028;28;20044;-64
2023/06/25 09:33:11;;;;;;;7.57;5.38;;;;;;;27.68;46.85;101716.94;5025408;28;20053;-63
2023/06/25 09:35:37;;;;;;;11.65;5.63;;;;;;;27.75;46.52;101710.16;5025262;28;20090;-62
2023/06/25 09:38:02;;;;;;;6.78;5.32;;;;;;;27.84;46.35;101710.50;5024856;28;20030;-64
2023/06/25 09:40:28;;;;;;;7.60;5.05;;;;;;;27.93;47.16;101710.81;5028803;28;20099;-64
2023/06/25 09:42:55;;;;;;;8.68;5.25;;;;;;;28.03;47.00;101708.13;5024568;28;20029;-63
2023/06/25 09:45:22;;;;;;;8.20;5.68;;;;;;;28.01;45.84;101711.13;5023034;28;20398;-64
2023/06/25 09:47:48;;;;;;;6.95;5.10;;;;;;;28.19;46.32;101706.28;5024805;28;20057;-63
2023/06/25 09:50:18;;;;;;;6.50;5.22;;;;;;;28.28;46.49;101696.50;5018671;28;20053;-63
2023/06/25 09:53:02;;;;;;;10.07;5.53;;;;;;;28.36;46.32;101696.84;5020310;28;20014;-63
2023/06/25 09:55:29;;;;;;;10.07;5.50;;;;;;;28.50;46.31;101694.41;5021227;28;20087;-62
2023/06/25 09:57:55;;;;;;;5.97;5.00;;;;;;;28.49;45.92;101692.75;5021975;28;20037;-63
2023/06/25 10:00:22;;;;;;;7.78;5.38;;;;;;;28.45;45.03;101688.91;5018906;28;20032;-63
2023/06/25 10:02:49;;;;;;;7.82;5.20;;;;;;;28.45;44.54;101680.72;5017272;28;20053;-63
2023/06/25 10:05:14;;;;;;;6.13;4.65;;;;;;;28.42;44.67;101691.38;5025298;28;20029;-63
2023/06/25 10:07:41;;;;;;;7.68;5.30;;;;;;;28.48;44.86;101687.56;5019960;28;20040;-63
2023/06/25 10:10:07;;;;;;;5.95;5.13;;;;;;;28.66;44.79;101687.06;5018684;28;20021;-63
2023/06/25 10:12:33;;;;;;;5.80;4.75;;;;;;;29.06;43.92;101693.69;5026941;28;20537;-63
2023/06/25 10:15:01;;;;;;;6.35;4.88;;;;;;;29.08;44.65;101681.38;5027956;28;20023;-63
2023/06/25 10:17:26;;;;;;;5.85;5.05;;;;;;;29.25;44.71;101675.63;5019147;28;20033;-63
2023/06/25 10:19:53;;;;;;;8.45;5.05;;;;;;;29.20;43.20;101672.88;5026813;28;20025;-63
2023/06/25 10:22:23;;;;;;;6.15;4.40;;;;;;;29.15;43.29;101681.09;5022983;28;20098;-63
2023/06/25 10:24:51;;;;;;;8.75;4.55;;;;;;;29.19;42.07;101677.53;5025136;28;20495;-63
2023/06/25 10:27:25;;;;;;;7.40;4.60;;;;;;;29.19;42.42;101680.25;5023860;28;20084;-63
2023/06/25 10:29:51;;;;;;;5.85;4.38;;;;;;;29.21;42.13;101674.53;5017034;28;20026;-63
2023/06/25 10:32:24;;;;;;;6.65;4.63;;;;;;;29.28;42.05;101667.69;5027474;28;20509;-63
2023/06/25 10:34:54;;;;;;;6.63;4.70;;;;;;;29.49;42.89;101667.66;5020550;28;20108;-63
2023/06/25 10:37:19;;;;;;;5.45;4.20;;;;;;;29.47;41.99;101667.94;5024858;28;20017;-63
2023/06/25 10:39:45;;;;;;;4.93;4.43;;;;;;;29.44;41.87;101670.38;5021040;28;20155;-63
2023/06/25 10:42:13;;;;;;;6.50;4.28;;;;;;;29.36;40.93;101666.28;5027533;28;20028;-63
2023/06/25 10:44:39;;;;;;;7.57;4.00;;;;;;;29.29;40.47;101665.75;5019735;28;20044;-63
2023/06/25 10:47:06;;;;;;;6.13;4.22;;;;;;;29.40;40.58;101653.69;5025953;28;20025;-63
2023/06/25 10:49:32;;;;;;;6.90;4.40;;;;;;;29.50;40.44;101650.16;5021230;28;20499;-62
2023/06/25 10:51:58;;;;;;;5.63;4.80;;;;;;;29.49;39.92;101648.50;5016705;28;20495;-63
2023/06/25 10:54:24;;;;;;;7.35;4.53;;;;;;;29.49;40.35;101649.34;5029211;28;20514;-63
2023/06/25 10:56:49;;;;;;;6.03;5.10;;;;;;;29.56;40.43;101647.13;5027104;28;20017;-63
2023/06/25 10:59:22;;;;;;;4.80;4.30;;;;;;;29.58;40.11;101647.66;5024270;28;20020;-63
2023/06/25 11:01:47;;;;;;;5.80;4.63;;;;;;;29.59;39.79;101645.75;5024544;28;20030;-63
2023/06/25 11:04:13;;;;;;;6.68;4.82;;;;;;;29.74;39.92;101642.94;5030310;28;20028;-63
2023/06/25 11:06:39;;;;;;;7.07;4.57;;;;;;;29.88;40.26;101640.44;5028178;28;20649;-63